Stout, Ohio
Current Conditions -  °F | °C
As of 12:55 AM on Monday 20 Oct 2014 (Local Time) from KFGX Reporting Station
Clear Clear  
Wind Chill: 42°   Ceiling: Unl
Heat Index: 45°   Visibility: 10mi
Dew Point: 40°   Wind: 5mph
Humidity: 84%   Direction: 190°S
Pressure: 30.08"   Gusts: NA
Location:  38.66°N, 83.38°W
Report Text: KFGX 200455Z AUTO 19004KT 10SM CLR 07/05 A3008 RMK AO2 T00710046
Loading
Personal Weather Stations






























Interactive Weather Map
Tropical Storm Tracking
New forecast layout! Learn more

10-Day Weather Forecast

Advertisements
Track Severe Weather on mobile